Time;durP1;ratioP1;P1;durP2;ratioP2;P2;SDS_P1;SDS_P2;PMS_P1;PMS_P2;Temp;Humidity;BMP_temperature;BMP_pressure;BME280_temperature;BME280_humidity;BME280_pressure;Samples;Min_cycle;Max_cycle;Signal;HPM_P1;HPM_P2
2022/06/23 00:00:17;;;;;;;13.82;10.23;;;;;;;21.78;80.61;99917.81;5027433;28;20034;-76
2022/06/23 00:02:43;;;;;;;22.85;11.23;;;;;;;21.64;82.11;99927.69;5014039;28;20496;-74
2022/06/23 00:05:15;;;;;;;13.18;10.43;;;;;;;21.68;83.03;99924.09;5022223;28;20052;-75
2022/06/23 00:07:45;;;;;;;16.08;9.55;;;;;;;21.36;82.85;99867.72;5030648;28;20029;-75
2022/06/23 00:10:19;;;;;;;16.15;10.40;;;;;;;21.39;83.60;99896.53;5031034;28;20041;-75
2022/06/23 00:12:45;;;;;;;15.63;10.98;;;;;;;21.54;84.04;99916.44;5030578;28;20033;-75
2022/06/23 00:15:18;;;;;;;14.48;11.00;;;;;;;21.59;84.09;99911.13;5031048;28;20044;-75
2022/06/23 00:17:54;;;;;;;15.60;10.52;;;;;;;21.59;83.96;99921.66;5028745;28;20500;-75
2022/06/23 00:20:27;;;;;;;14.07;10.40;;;;;;;21.42;82.86;99890.38;5036945;28;20522;-75
2022/06/23 00:23:05;;;;;;;16.85;10.15;;;;;;;21.59;83.79;99905.88;5053075;28;20040;-75
2022/06/23 00:25:42;;;;;;;12.60;9.50;;;;;;;21.58;83.19;99902.41;5052851;28;20025;-75
2022/06/23 00:28:18;;;;;;;12.35;10.35;;;;;;;21.62;82.53;99911.06;5052731;28;20563;-76
2022/06/23 00:30:48;;;;;;;12.93;10.13;;;;;;;21.50;83.29;99899.84;5053267;28;20032;-75
2022/06/23 00:33:20;;;;;;;18.17;11.07;;;;;;;21.70;82.78;99924.94;5052847;28;20029;-73
2022/06/23 00:35:48;;;;;;;17.27;10.85;;;;;;;21.34;82.86;99859.00;5051414;28;20412;-75
2022/06/23 00:38:29;;;;;;;15.02;10.88;;;;;;;21.67;83.00;99916.25;5052698;28;20626;-75
2022/06/23 00:40:56;;;;;;;13.75;10.77;;;;;;;21.56;83.74;99909.44;5052788;28;20029;-75
2022/06/23 00:43:22;;;;;;;14.00;10.90;;;;;;;21.26;86.38;99916.91;5052778;28;20021;-74
2022/06/23 00:45:55;;;;;;;15.30;10.85;;;;;;;20.62;88.01;99859.22;5052828;28;20396;-75
2022/06/23 00:48:35;;;;;;;17.95;11.57;;;;;;;21.07;87.95;99916.31;5052383;28;20079;-75
2022/06/23 00:51:08;;;;;;;18.00;10.93;;;;;;;21.22;87.48;99920.47;5037695;28;20037;-75
2022/06/23 00:53:44;;;;;;;17.65;11.05;;;;;;;20.96;87.67;99866.63;5052313;28;20025;-74
2022/06/23 00:56:23;;;;;;;12.73;10.18;;;;;;;21.43;85.99;99915.75;5037456;28;20502;-81
2022/06/23 00:59:06;;;;;;;13.82;10.27;;;;;;;21.45;86.19;99896.44;5049889;28;20100;-77
2022/06/23 01:01:35;;;;;;;13.50;10.55;;;;;;;21.66;85.19;99904.88;5043613;28;20037;-78
2022/06/23 01:04:19;;;;;;;15.30;11.00;;;;;;;21.54;85.26;99905.91;5030757;28;20033;-78
2022/06/23 01:06:51;;;;;;;16.50;10.70;;;;;;;21.32;85.88;99915.91;5018147;28;20044;-77
2022/06/23 01:09:26;;;;;;;15.93;11.20;;;;;;;20.92;86.14;99861.44;5028401;28;20412;-77
2022/06/23 01:12:02;;;;;;;13.38;10.82;;;;;;;21.09;85.88;99877.78;5031064;28;20408;-76
2022/06/23 01:14:37;;;;;;;16.23;10.02;;;;;;;21.32;85.02;99898.41;5031266;28;20056;-75
2022/06/23 01:17:25;;;;;;;18.80;11.50;;;;;;;21.46;83.93;99907.84;5031263;28;20063;-76
2022/06/23 01:20:15;;;;;;;14.20;11.00;;;;;;;21.46;83.96;99920.97;5031282;28;20021;-76
2022/06/23 01:22:49;;;;;;;13.05;10.13;;;;;;;21.34;84.29;99922.88;5031691;28;20112;-77
2022/06/23 01:25:52;;;;;;;18.63;11.02;;;;;;;21.27;84.55;99918.63;5031065;28;20108;-77
2022/06/23 01:28:20;;;;;;;16.35;10.68;;;;;;;21.32;84.85;99916.81;5033379;28;20037;-74
2022/06/23 01:31:12;;;;;;;15.52;11.70;;;;;;;21.21;84.26;99891.59;5051841;28;20503;-72
2022/06/23 01:33:45;;;;;;;19.92;11.95;;;;;;;21.17;84.27;99883.78;5033802;28;20045;-76
2022/06/23 01:36:33;;;;;;;16.42;11.32;;;;;;;21.25;84.71;99907.28;5031327;28;20038;-74
2022/06/23 01:42:38;;;;;;;14.50;10.93;;;;;;;21.03;84.96;99866.53;5063266;23;20067;-75
2022/06/23 01:45:17;;;;;;;11.73;9.90;;;;;;;20.60;83.96;99828.63;5013703;28;20036;-76
2022/06/23 01:48:00;;;;;;;15.02;11.00;;;;;;;20.56;86.04;99908.25;5024841;28;20599;-79
2022/06/23 01:50:52;;;;;;;13.82;10.23;;;;;;;20.66;85.45;99904.63;5032675;28;20104;-76
2022/06/23 01:53:17;;;;;;;13.77;10.93;;;;;;;20.73;85.44;99898.44;5014235;28;20033;-76
2022/06/23 01:56:06;;;;;;;13.07;10.73;;;;;;;20.16;87.29;99825.75;5012257;28;20026;-76
2022/06/23 01:58:58;;;;;;;14.82;11.02;;;;;;;20.44;92.17;99901.44;5012341;28;20489;-76
2022/06/23 02:01:56;;;;;;;13.98;10.80;;;;;;;20.35;92.15;99931.25;4994637;28;20037;-76
2022/06/23 02:04:30;;;;;;;12.98;10.00;;;;;;;20.19;91.59;99941.03;5012243;28;20437;-76
2022/06/23 02:07:05;;;;;;;14.30;10.48;;;;;;;20.33;91.09;99933.88;5012199;28;20088;-76
2022/06/23 02:09:42;;;;;;;13.63;10.05;;;;;;;19.76;90.01;99848.00;5012101;28;20460;-76
2022/06/23 02:12:28;;;;;;;17.30;10.70;;;;;;;20.02;89.77;99918.50;5012119;28;20037;-76
2022/06/23 02:15:20;;;;;;;12.82;10.73;;;;;;;19.93;90.54;99938.69;5012141;28;20080;-76
2022/06/23 02:17:53;;;;;;;13.68;9.73;;;;;;;19.76;91.49;99937.06;5012145;28;20036;-76
2022/06/23 02:20:35;;;;;;;15.48;10.75;;;;;;;19.59;91.22;99897.06;5012274;28;20037;-77
2022/06/23 02:23:28;;;;;;;16.55;10.77;;;;;;;19.42;92.07;99890.25;5012120;28;20531;-75
2022/06/23 02:26:14;;;;;;;13.50;10.52;;;;;;;19.86;91.17;99949.25;5012026;28;20088;-76
2022/06/23 02:28:49;;;;;;;14.13;10.73;;;;;;;19.79;90.89;99916.09;4950745;28;20043;-76
2022/06/23 02:31:47;;;;;;;15.73;9.90;;;;;;;20.08;90.53;99937.69;4951324;29;20051;-77
2022/06/23 02:34:19;;;;;;;14.02;10.02;;;;;;;20.12;89.46;99921.88;4951164;29;20047;-77
2022/06/23 02:37:02;;;;;;;14.25;10.55;;;;;;;20.19;88.20;99923.56;4935554;29;20070;-76
2022/06/23 02:39:38;;;;;;;14.02;10.65;;;;;;;20.30;87.74;99930.41;4935164;29;20035;-76
2022/06/23 02:42:23;;;;;;;20.63;10.85;;;;;;;20.14;88.14;99937.59;4950852;29;20094;-76
2022/06/23 02:45:24;;;;;;;19.30;10.73;;;;;;;20.15;88.53;99929.72;4950941;29;20027;-77
2022/06/23 02:47:58;;;;;;;13.70;10.90;;;;;;;20.23;88.20;99934.03;4893740;29;20048;-76
2022/06/23 02:50:29;;;;;;;14.90;10.38;;;;;;;20.11;89.14;99940.25;4893927;29;20047;-76
2022/06/23 02:53:09;;;;;;;16.77;10.02;;;;;;;19.92;89.99;99943.06;4893812;29;20052;-76
2022/06/23 02:55:58;;;;;;;14.40;9.85;;;;;;;20.00;90.33;99941.25;4893784;29;20032;-76
2022/06/23 02:58:32;;;;;;;12.80;9.52;;;;;;;20.04;89.79;99942.94;4838072;29;20133;-76
2022/06/23 03:01:03;;;;;;;18.00;10.10;;;;;;;20.01;89.05;99942.09;4838133;29;20053;-76
2022/06/23 03:03:31;;;;;;;15.45;10.40;;;;;;;20.11;88.18;99954.25;4837828;29;20570;-76
2022/06/23 03:06:02;;;;;;;19.67;10.20;;;;;;;20.04;88.61;99963.03;4848430;29;20440;-76
2022/06/23 03:08:59;;;;;;;13.40;9.52;;;;;;;19.68;88.99;99910.09;4856325;29;20076;-77
2022/06/23 03:11:51;;;;;;;14.50;8.73;;;;;;;19.47;89.21;99883.22;4856451;29;20069;-76
2022/06/23 03:14:49;;;;;;;15.43;9.75;;;;;;;19.93;88.94;99950.03;4860272;29;20582;-77
2022/06/23 03:17:28;;;;;;;13.95;9.52;;;;;;;19.89;88.86;99958.81;4865890;29;20042;-77
2022/06/23 03:20:20;;;;;;;17.15;10.50;;;;;;;20.00;88.32;99956.06;4855977;29;20869;-76
2022/06/23 03:23:01;;;;;;;15.88;10.52;;;;;;;19.95;87.99;99950.91;4855624;29;20037;-77
2022/06/23 03:25:39;;;;;;;13.35;10.00;;;;;;;20.08;87.30;99943.78;4908677;29;20594;-77
2022/06/23 03:28:07;;;;;;;16.13;9.75;;;;;;;20.11;87.41;99943.75;4930860;29;20078;-76
2022/06/23 03:30:52;;;;;;;16.95;10.88;;;;;;;20.11;87.90;99943.75;4930810;29;20499;-77
2022/06/23 03:33:30;;;;;;;12.52;10.07;;;;;;;20.15;87.17;99934.06;4930683;29;20031;-77
2022/06/23 03:36:04;;;;;;;16.55;10.60;;;;;;;20.12;87.39;99924.50;4986072;28;20046;-77
2022/06/23 03:41:44;;;;;;;13.98;9.88;;;;;;;19.92;87.80;99903.75;5012567;28;20064;-77
2022/06/23 03:44:18;;;;;;;15.10;11.15;;;;;;;20.07;89.51;99965.63;5014508;28;20029;-77
2022/06/23 03:46:52;;;;;;;14.95;11.13;;;;;;;20.01;89.62;99957.81;5014820;28;20042;-77
2022/06/23 03:49:53;;;;;;;14.85;10.80;;;;;;;20.07;89.18;99957.75;5014953;28;20026;-77
2022/06/23 03:52:32;;;;;;;16.25;11.30;;;;;;;19.98;90.32;99947.38;4953402;28;20610;-76
2022/06/23 03:55:23;;;;;;;11.88;9.05;;;;;;;20.08;88.36;99950.78;4965727;28;20121;-76
2022/06/23 03:57:58;;;;;;;16.00;9.48;;;;;;;20.20;88.88;99958.50;4915369;29;20098;-77
2022/06/23 04:00:39;;;;;;;17.48;9.70;;;;;;;20.15;88.56;99948.06;4915370;29;20047;-77
2022/06/23 04:03:11;;;;;;;15.68;9.75;;;;;;;20.28;88.34;99964.53;4915617;29;20601;-77
2022/06/23 04:05:55;;;;;;;18.35;10.05;;;;;;;20.32;88.23;99967.97;4915331;29;20032;-77
2022/06/23 04:08:26;;;;;;;18.27;11.05;;;;;;;20.27;89.12;99972.41;4915230;29;20039;-77
2022/06/23 04:10:54;;;;;;;18.35;9.70;;;;;;;20.16;88.35;99981.25;4915242;29;20491;-77
2022/06/23 04:13:28;;;;;;;20.20;10.20;;;;;;;20.00;88.66;99992.75;4914983;29;20079;-77
2022/06/23 04:16:00;;;;;;;21.75;11.35;;;;;;;19.92;90.95;99989.34;4915147;29;20063;-77
2022/06/23 04:18:29;;;;;;;15.82;10.75;;;;;;;20.10;91.29;99990.91;4914834;29;20036;-77
2022/06/23 04:21:00;;;;;;;18.52;11.82;;;;;;;20.26;90.17;99989.91;4914911;29;20039;-77
2022/06/23 04:23:30;;;;;;;16.13;11.13;;;;;;;20.45;89.27;99987.94;4915167;29;20044;-76
2022/06/23 04:26:06;;;;;;;18.45;11.90;;;;;;;19.90;91.00;99925.63;4914884;29;20395;-76
2022/06/23 04:28:47;;;;;;;13.20;10.90;;;;;;;20.14;91.11;100001.38;4917936;29;20094;-76
2022/06/23 04:31:35;;;;;;;14.68;10.88;;;;;;;20.25;90.07;100005.63;4933768;29;20032;-77
2022/06/23 04:34:01;;;;;;;14.63;10.88;;;;;;;20.29;91.17;100000.34;4931625;28;20046;-77
2022/06/23 04:36:30;;;;;;;16.15;10.48;;;;;;;20.46;90.59;100002.78;5012356;28;20036;-77
2022/06/23 04:39:16;;;;;;;14.40;11.00;;;;;;;20.57;91.95;100007.88;5012396;28;20069;-77
2022/06/23 04:41:46;;;;;;;20.63;11.02;;;;;;;20.68;90.25;100003.38;5013288;28;20057;-77
2022/06/23 04:44:25;;;;;;;14.55;10.27;;;;;;;20.67;90.24;100004.28;5013361;28;20025;-76
2022/06/23 04:47:05;;;;;;;16.60;10.60;;;;;;;20.83;90.40;100001.50;5013315;28;20034;-77
2022/06/23 04:49:42;;;;;;;18.30;9.50;;;;;;;20.86;89.47;99996.22;5013557;28;20490;-77
2022/06/23 04:52:37;;;;;;;15.10;9.10;;;;;;;21.08;88.36;100009.91;5012826;28;20034;-78
2022/06/23 04:55:15;;;;;;;9.77;6.40;;;;;;;20.99;83.07;99996.91;5024277;28;20119;-77
2022/06/23 04:57:49;;;;;;;13.07;7.10;;;;;;;21.02;81.31;99988.97;5032224;28;20030;-77
2022/06/23 05:00:21;;;;;;;15.70;6.35;;;;;;;20.78;81.54;99941.19;5033054;28;20033;-77
2022/06/23 05:02:56;;;;;;;13.82;5.68;;;;;;;21.21;79.97;99993.97;5032531;28;20459;-76
2022/06/23 05:05:41;;;;;;;16.38;5.95;;;;;;;21.17;79.05;99986.16;5032187;28;20148;-77
2022/06/23 05:08:14;;;;;;;14.05;6.22;;;;;;;21.28;78.98;100000.88;5032628;28;20029;-77
2022/06/23 05:11:06;;;;;;;13.85;6.03;;;;;;;21.28;78.46;100006.13;5032925;28;20130;-77
2022/06/23 05:13:48;;;;;;;20.85;6.50;;;;;;;21.41;78.20;99999.81;5032588;28;20492;-76
2022/06/23 05:16:23;;;;;;;21.10;5.68;;;;;;;21.62;76.31;99997.75;5031709;28;20029;-76
2022/06/23 05:18:53;;;;;;;23.08;6.53;;;;;;;21.64;77.40;99982.84;5012554;28;20071;-77
2022/06/23 05:21:22;;;;;;;17.27;5.88;;;;;;;21.90;75.29;100000.78;5013037;28;20069;-77
2022/06/23 05:23:59;;;;;;;23.10;7.10;;;;;;;22.02;78.90;100004.97;5012781;28;20026;-76
2022/06/23 05:26:28;;;;;;;34.40;8.13;;;;;;;22.11;78.58;100003.94;5025836;28;20079;-77
2022/06/23 05:29:17;;;;;;;30.85;8.10;;;;;;;21.90;77.93;99950.00;5014818;28;20044;-76
2022/06/23 05:31:46;;;;;;;28.00;7.43;;;;;;;22.38;75.35;100010.50;5031546;28;20492;-76
2022/06/23 05:34:18;;;;;;;30.35;7.90;;;;;;;22.54;73.91;100020.69;5032047;28;20500;-77
2022/06/23 05:37:04;;;;;;;24.13;8.80;;;;;;;22.66;73.53;100012.56;5032021;28;20041;-77
2022/06/23 05:39:42;;;;;;;23.98;7.68;;;;;;;22.77;72.12;100028.13;5032242;28;20396;-76
2022/06/23 05:42:16;;;;;;;24.52;6.80;;;;;;;22.79;67.72;100036.84;5032294;28;20065;-77
2022/06/23 05:44:48;;;;;;;29.50;6.68;;;;;;;22.89;68.32;100032.28;4996265;28;20049;-81
2022/06/23 05:47:16;;;;;;;31.77;7.38;;;;;;;23.02;66.23;100028.47;5031671;28;20077;-77
2022/06/23 05:49:48;;;;;;;26.73;4.85;;;;;;;23.03;59.31;100017.06;5024649;28;20038;-80
2022/06/23 05:52:20;;;;;;;16.25;4.45;;;;;;;22.77;58.20;99944.78;5024611;28;20421;-77
2022/06/23 05:55:05;;;;;;;17.50;4.97;;;;;;;23.29;63.69;100004.22;5031616;28;20540;-77
2022/06/23 05:57:56;;;;;;;20.73;4.57;;;;;;;23.33;64.84;100009.41;5031718;28;20104;-77
2022/06/23 06:00:35;;;;;;;11.02;3.25;;;;;;;23.04;55.40;99962.63;5031677;28;20112;-76
2022/06/23 06:03:17;;;;;;;4.47;2.08;;;;;;;23.29;55.95;100015.66;5031681;28;20061;-77
2022/06/23 06:05:47;;;;;;;10.23;2.30;;;;;;;23.49;55.95;100028.34;5031157;28;20112;-77
2022/06/23 06:08:16;;;;;;;;;;;;;;;23.54;56.78;100025.59;5032149;28;20167;-77
2022/06/23 06:10:42;;;;;;;7.35;2.50;;;;;;;23.57;54.82;100034.28;5031952;28;19909;-77
2022/06/23 06:13:14;;;;;;;5.32;2.30;;;;;;;23.71;53.61;100026.06;4964215;28;20029;-77
2022/06/23 06:15:46;;;;;;;8.60;2.50;;;;;;;23.73;51.45;100031.28;5031393;28;20504;-77
2022/06/23 06:18:28;;;;;;;8.52;2.72;;;;;;;23.81;53.62;100028.47;5031308;28;20500;-77
2022/06/23 06:20:57;;;;;;;11.75;2.25;;;;;;;23.88;49.90;100022.13;5013949;28;20041;-77
2022/06/23 06:23:29;;;;;;;4.90;2.58;;;;;;;23.87;52.63;100007.22;5031484;28;20032;-76
2022/06/23 06:25:55;;;;;;;14.65;3.15;;;;;;;24.01;50.68;100007.78;5030094;28;20037;-77
2022/06/23 06:28:33;;;;;;;14.90;3.08;;;;;;;24.10;52.01;100000.50;4996211;28;20046;-77
2022/06/23 06:31:26;;;;;;;11.63;3.25;;;;;;;24.19;51.86;100008.19;5025750;28;20029;-77
2022/06/23 06:34:01;;;;;;;10.30;2.92;;;;;;;24.28;52.19;100007.94;5025699;28;20037;-77
2022/06/23 06:36:26;;;;;;;11.50;2.60;;;;;;;24.32;54.93;100004.28;5031018;28;20033;-77
2022/06/23 06:38:58;;;;;;;5.82;2.47;;;;;;;24.02;50.29;99953.25;5031182;28;20025;-77
2022/06/23 06:41:23;;;;;;;19.92;4.32;;;;;;;24.43;51.30;100001.38;5030907;28;20068;-77
2022/06/23 06:43:49;;;;;;;21.85;3.80;;;;;;;24.43;51.49;100005.78;5031143;28;20029;-77
2022/06/23 06:46:14;;;;;;;18.52;3.53;;;;;;;24.45;51.58;99996.03;5030893;28;20029;-77
2022/06/23 06:48:43;;;;;;;24.67;4.50;;;;;;;24.49;50.30;100000.34;5030883;28;20033;-77
2022/06/23 06:51:18;;;;;;;17.42;3.47;;;;;;;24.60;49.54;100019.38;5024515;28;20393;-77
2022/06/23 06:53:55;;;;;;;23.10;4.55;;;;;;;24.64;51.05;100013.09;5017823;28;20084;-77
2022/06/23 06:56:26;;;;;;;14.15;4.22;;;;;;;24.75;55.75;100019.84;5003594;28;20041;-75
2022/06/23 06:59:03;;;;;;;19.08;4.57;;;;;;;24.81;55.59;100014.41;5013051;28;20057;-77
2022/06/23 07:01:33;;;;;;;10.40;2.65;;;;;;;24.86;51.36;100015.13;5027465;28;20515;-77
2022/06/23 07:03:59;;;;;;;7.70;2.40;;;;;;;24.87;49.97;100008.94;5029527;28;20030;-77
2022/06/23 07:06:32;;;;;;;8.52;2.60;;;;;;;24.91;49.24;100031.72;5030798;28;20104;-76
2022/06/23 07:09:39;;;;;;;12.63;2.80;;;;;;;24.82;49.88;100037.25;5028144;28;20480;-76
2022/06/23 07:12:05;;;;;;;5.32;2.13;;;;;;;24.50;48.98;99997.66;4930844;29;20120;-76
2022/06/23 07:14:37;;;;;;;13.70;2.55;;;;;;;24.79;50.71;100040.84;4930752;29;20780;-76
2022/06/23 07:17:11;;;;;;;10.38;2.38;;;;;;;24.93;49.83;100058.06;4930107;29;20130;-77
2022/06/23 07:20:04;;;;;;;10.10;2.40;;;;;;;24.94;50.41;100071.22;4931129;29;20130;-76
2022/06/23 07:22:47;;;;;;;7.57;2.50;;;;;;;25.01;50.37;100082.47;4874151;29;20033;-77
2022/06/23 07:25:25;;;;;;;6.60;2.55;;;;;;;25.14;52.12;100098.84;4858775;29;20044;-78
2022/06/23 07:27:52;;;;;;;7.80;2.50;;;;;;;25.10;51.31;100103.34;4874511;29;20051;-76
2022/06/23 07:30:55;;;;;;;9.60;2.50;;;;;;;24.76;50.62;100071.75;4874432;29;20049;-76
2022/06/23 07:33:24;;;;;;;9.70;2.75;;;;;;;24.87;50.16;100135.69;4837112;29;20050;-77
2022/06/23 07:35:54;;;;;;;6.82;2.45;;;;;;;24.38;50.71;100092.97;4837189;29;20122;-76
2022/06/23 07:38:42;;;;;;;11.80;2.45;;;;;;;24.32;50.76;100116.88;4837182;29;20065;-77
2022/06/23 07:41:08;;;;;;;5.22;2.70;;;;;;;24.47;51.40;100178.94;4837140;29;20068;-75
2022/06/23 07:43:56;;;;;;;10.85;2.28;;;;;;;23.58;51.67;100075.53;4837023;29;20549;-76
2022/06/23 07:46:22;;;;;;;5.13;2.20;;;;;;;24.07;51.42;100178.13;4836951;29;20510;-76
2022/06/23 07:48:47;;;;;;;3.97;2.00;;;;;;;23.96;51.02;100185.44;4863849;29;20048;-76
2022/06/23 07:51:13;;;;;;;5.22;2.60;;;;;;;23.89;52.93;100197.88;4893056;29;20036;-75
2022/06/23 07:53:44;;;;;;;6.22;2.30;;;;;;;23.86;52.51;100209.34;4887038;29;20558;-74
2022/06/23 07:56:19;;;;;;;4.00;2.13;;;;;;;23.86;53.34;100209.34;4891022;29;20044;-75
2022/06/23 07:58:49;;;;;;;4.95;2.25;;;;;;;23.78;52.67;100198.09;4902370;28;20073;-76
2022/06/23 08:01:17;;;;;;;;;;;;;;;23.82;54.64;100215.56;4959695;28;20027;-76
2022/06/23 08:04:03;;;;;;;9.48;2.72;;;;;;;23.82;55.68;100220.00;4957695;28;20449;-74
2022/06/23 08:06:31;;;;;;;4.97;2.30;;;;;;;22.96;55.93;100086.53;4943519;28;20034;-76
2022/06/23 08:09:01;;;;;;;12.20;2.45;;;;;;;23.67;56.39;100216.78;4989805;28;20112;-76
2022/06/23 08:14:30;;;;;;;9.40;2.80;;;;;;;23.79;58.29;100231.47;5020562;28;20024;-75
2022/06/23 08:16:59;;;;;;;6.75;2.80;;;;;;;23.69;56.71;100220.25;5020905;28;20037;-76
2022/06/23 08:19:44;;;;;;;7.63;2.85;;;;;;;23.32;55.70;100168.34;5020433;28;20057;-75
2022/06/23 08:22:20;;;;;;;4.60;2.20;;;;;;;23.72;55.59;100190.34;5020524;28;20484;-73
2022/06/23 08:24:49;;;;;;;4.82;2.35;;;;;;;23.66;54.92;100114.88;5020613;28;20017;-75
2022/06/23 08:27:19;;;;;;;4.60;2.28;;;;;;;23.98;57.10;100134.41;5020834;28;20029;-76
2022/06/23 08:29:49;;;;;;;8.68;2.28;;;;;;;24.13;59.84;100134.94;5007861;28;20033;-76
2022/06/23 08:32:16;;;;;;;9.73;2.63;;;;;;;24.17;60.18;100123.41;5025041;28;20022;-76
2022/06/23 08:35:26;;;;;;;5.90;2.28;;;;;;;24.20;54.56;100104.84;5023492;28;20500;-78
2022/06/23 08:38:01;;;;;;;6.38;2.13;;;;;;;24.20;55.37;100115.41;4932320;29;20059;-76
2022/06/23 08:40:51;;;;;;;3.88;2.15;;;;;;;24.25;57.57;100116.19;4932161;29;20124;-76
2022/06/23 08:43:39;;;;;;;6.72;2.30;;;;;;;24.32;56.55;100115.09;4930815;29;20127;-76
2022/06/23 08:46:30;;;;;;;11.95;2.70;;;;;;;24.29;56.96;100086.16;4875777;29;20794;-76
2022/06/23 08:49:17;;;;;;;9.57;2.60;;;;;;;24.30;56.29;100061.53;4847364;29;20450;-75
2022/06/23 08:52:11;;;;;;;9.48;2.65;;;;;;;24.41;58.88;100063.84;4844004;29;20060;-77
2022/06/23 08:54:48;;;;;;;7.68;3.90;;;;;;;23.93;56.94;99971.97;4829179;29;20046;-77
2022/06/23 08:57:41;;;;;;;13.77;4.22;;;;;;;24.49;59.68;100053.97;4823169;29;20541;-78
2022/06/23 09:00:30;;;;;;;22.02;5.13;;;;;;;24.56;58.08;100052.00;4820863;29;20599;-75
2022/06/23 09:03:01;;;;;;;11.90;3.50;;;;;;;24.49;58.18;100056.59;4818913;29;20063;-79
2022/06/23 09:05:33;;;;;;;6.30;2.60;;;;;;;24.37;58.45;100071.00;4820829;29;20180;-75
2022/06/23 09:08:10;;;;;;;6.32;2.50;;;;;;;24.32;58.10;100070.25;4820891;29;20049;-77
2022/06/23 09:10:58;;;;;;;8.43;2.42;;;;;;;24.32;58.08;100075.53;4819398;29;20034;-76
2022/06/23 09:13:48;;;;;;;7.03;2.75;;;;;;;24.28;62.80;100079.16;4833068;29;20116;-77
2022/06/23 09:16:31;;;;;;;5.00;2.10;;;;;;;24.29;58.40;100096.72;4873918;29;20115;-76
2022/06/23 09:19:06;;;;;;;6.05;2.33;;;;;;;24.19;58.66;100103.16;4876107;29;20167;-75
2022/06/23 09:21:41;;;;;;;5.43;2.15;;;;;;;23.87;54.94;100071.34;4873514;29;20092;-75
2022/06/23 09:24:28;;;;;;;6.75;2.53;;;;;;;23.56;55.59;100064.19;4892260;29;20036;-73
2022/06/23 09:27:24;;;;;;;5.15;2.17;;;;;;;23.83;55.85;100126.84;5015309;28;20069;-76
2022/06/23 09:29:57;;;;;;;4.97;2.15;;;;;;;23.82;55.10;100131.22;5023301;28;20090;-78
2022/06/23 09:32:53;;;;;;;3.42;1.88;;;;;;;23.77;54.76;100137.53;5020517;28;20112;-75
2022/06/23 09:35:34;;;;;;;8.40;2.10;;;;;;;23.86;56.45;100119.72;5022716;28;20591;-76
2022/06/23 09:38:36;;;;;;;5.20;2.25;;;;;;;23.89;56.98;100101.19;5022332;28;20488;-76
2022/06/23 09:41:31;;;;;;;5.53;2.25;;;;;;;23.94;58.65;100101.13;5023167;28;20589;-76
2022/06/23 09:44:05;;;;;;;3.38;2.30;;;;;;;23.90;57.15;100076.56;5022550;28;20107;-75
2022/06/23 09:46:49;;;;;;;6.05;2.20;;;;;;;23.92;56.77;100073.91;5022117;28;20025;-77
2022/06/23 09:49:36;;;;;;;3.50;2.15;;;;;;;23.92;56.76;100076.53;5012249;28;20055;-77
2022/06/23 09:52:10;;;;;;;4.65;2.00;;;;;;;23.92;55.45;100062.50;5022926;28;20092;-76
2022/06/23 09:54:41;;;;;;;8.30;2.47;;;;;;;23.95;56.94;100094.06;5021014;28;20083;-77
2022/06/23 09:57:32;;;;;;;7.60;2.58;;;;;;;23.87;58.76;100107.41;5024660;28;20037;-76
2022/06/23 10:00:21;;;;;;;5.93;2.53;;;;;;;23.67;60.75;100114.00;5024983;28;20120;-74
2022/06/23 10:03:21;;;;;;;9.27;3.60;;;;;;;23.63;63.38;100143.97;5023213;28;20075;-79
2022/06/23 10:06:13;;;;;;;90.47;42.00;;;;;;;23.04;65.72;100089.88;4903770;29;20047;-77
2022/06/23 10:08:53;;;;;;;14.57;5.63;;;;;;;23.21;65.82;100149.25;4904201;29;20560;-77
2022/06/23 10:11:33;;;;;;;29.83;16.00;;;;;;;23.38;65.64;100143.66;4903980;29;20392;-75
2022/06/23 10:14:30;;;;;;;26.48;12.75;;;;;;;23.35;66.66;100139.31;4904960;29;20051;-74
2022/06/23 10:17:20;;;;;;;25.90;14.23;;;;;;;23.33;64.11;100129.69;4845477;29;20038;-76
2022/06/23 10:19:54;;;;;;;;;;;;;;;23.39;63.74;100119.00;4844815;29;20034;-74
2022/06/23 10:22:31;;;;;;;8.68;3.58;;;;;;;23.19;61.96;100050.97;4842799;29;20093;-75
2022/06/23 10:25:06;;;;;;;12.23;6.32;;;;;;;23.55;58.91;100087.91;4846489;29;20030;-77
2022/06/23 10:27:48;;;;;;;9.70;5.28;;;;;;;23.65;61.13;100089.47;4843523;29;20049;-76
2022/06/23 10:30:32;;;;;;;7.35;3.20;;;;;;;23.66;60.11;100088.53;4842387;29;20068;-75
2022/06/23 10:33:35;;;;;;;7.60;3.15;;;;;;;23.81;60.19;100084.69;4845835;29;20116;-78
2022/06/23 10:36:15;;;;;;;6.05;2.80;;;;;;;23.93;63.71;100085.34;4846933;29;20491;-77
2022/06/23 10:38:49;;;;;;;5.20;2.72;;;;;;;23.95;63.05;100094.06;4846161;29;20466;-77
2022/06/23 10:41:32;;;;;;;18.45;10.00;;;;;;;23.99;61.67;100080.78;4857301;29;20059;-75
2022/06/23 10:44:40;;;;;;;10.23;6.40;;;;;;;24.11;59.62;100081.38;4940995;28;20039;-77
2022/06/23 10:47:26;;;;;;;8.70;4.82;;;;;;;24.23;62.08;100065.22;4919960;29;20047;-76
2022/06/23 10:50:29;;;;;;;4.32;2.90;;;;;;;24.36;60.86;100053.44;4918466;29;20043;-77
2022/06/23 10:53:11;;;;;;;5.47;2.85;;;;;;;24.49;59.54;100056.59;4921469;28;20059;-77
2022/06/23 10:55:46;;;;;;;4.25;2.40;;;;;;;23.89;55.52;99995.72;4958100;28;20031;-76
2022/06/23 10:58:49;;;;;;;5.82;2.30;;;;;;;24.22;57.56;100064.38;4956767;28;20063;-76
2022/06/23 11:01:33;;;;;;;5.30;2.80;;;;;;;24.34;55.86;100070.22;4959565;28;20510;-78
2022/06/23 11:04:04;;;;;;;7.63;2.80;;;;;;;23.74;54.89;100006.69;4951400;28;20050;-77
2022/06/23 11:06:54;;;;;;;6.07;2.63;;;;;;;24.21;52.53;100059.13;4950136;28;20122;-77
2022/06/23 11:10:21;;;;;;;5.15;2.60;;;;;;;24.30;51.01;100043.06;4949871;29;20031;-76
2022/06/23 11:13:05;;;;;;;5.88;2.47;;;;;;;24.43;51.63;100048.00;4930771;29;20103;-77
2022/06/23 11:15:36;;;;;;;8.23;2.75;;;;;;;24.47;53.35;100047.00;4930710;29;20039;-77
2022/06/23 11:18:25;;;;;;;7.40;2.65;;;;;;;24.46;55.09;100058.47;4921972;29;20123;-75
2022/06/23 11:21:18;;;;;;;6.07;2.78;;;;;;;24.46;52.95;100066.38;4923375;29;20543;-76
2022/06/23 11:23:54;;;;;;;5.28;2.60;;;;;;;24.35;57.02;100069.28;4915677;29;20052;-75
2022/06/23 11:26:38;;;;;;;6.28;2.47;;;;;;;24.15;61.11;100046.09;4891851;29;20064;-79
2022/06/23 11:29:22;;;;;;;5.10;2.30;;;;;;;24.27;59.87;100072.13;4891713;29;20045;-75
2022/06/23 11:32:03;;;;;;;6.15;2.70;;;;;;;24.11;57.51;100073.44;4888582;29;20530;-73
2022/06/23 11:34:59;;;;;;;6.75;2.65;;;;;;;24.14;61.75;100062.81;4874221;29;20427;-78
2022/06/23 11:37:55;;;;;;;7.65;3.90;;;;;;;24.15;61.37;100046.09;4888887;29;20036;-76
2022/06/23 11:40:52;;;;;;;7.03;3.97;;;;;;;24.27;64.00;100045.75;4890231;29;20718;-76
2022/06/23 11:43:22;;;;;;;4.78;2.83;;;;;;;24.16;61.71;100017.06;4891566;29;20076;-79
2022/06/23 11:46:03;;;;;;;9.93;2.83;;;;;;;24.29;59.74;100056.28;4891775;29;20045;-78
2022/06/23 11:48:49;;;;;;;5.30;2.60;;;;;;;24.57;59.67;100061.66;4891866;29;20063;-75
2022/06/23 11:51:34;;;;;;;7.55;2.60;;;;;;;24.79;56.65;100061.13;4892038;29;20461;-73
2022/06/23 11:54:11;;;;;;;5.80;3.17;;;;;;;24.28;58.32;100007.06;4882894;29;20067;-76
2022/06/23 11:56:43;;;;;;;6.38;2.20;;;;;;;24.64;54.09;100063.25;4906940;29;20103;-76
2022/06/23 11:59:14;;;;;;;5.45;2.90;;;;;;;24.28;52.99;100062.47;4893088;29;20113;-77
2022/06/23 12:01:39;;;;;;;4.95;3.00;;;;;;;24.31;56.50;100036.00;4891704;29;20040;-76
2022/06/23 12:04:27;;;;;;;6.15;2.53;;;;;;;24.61;54.34;100050.16;4895294;29;20036;-78
2022/06/23 12:07:17;;;;;;;4.30;2.65;;;;;;;24.53;56.35;100012.53;4895333;29;20173;-77
2022/06/23 12:10:01;;;;;;;6.82;3.13;;;;;;;24.68;56.25;100045.56;4895369;29;20107;-78
2022/06/23 12:12:30;;;;;;;4.70;2.67;;;;;;;24.60;56.96;100045.75;4895069;29;20025;-78
2022/06/23 12:14:56;;;;;;;5.70;2.80;;;;;;;24.52;55.89;100045.09;4895174;29;20043;-79
2022/06/23 12:17:32;;;;;;;8.48;2.90;;;;;;;24.33;58.51;100045.59;4895270;29;20417;-79
2022/06/23 12:20:14;;;;;;;10.73;3.00;;;;;;;24.38;57.75;100056.88;4928845;28;20034;-79
2022/06/23 12:22:56;;;;;;;5.70;2.92;;;;;;;24.42;57.40;100048.91;4973707;28;20082;-77
2022/06/23 12:25:30;;;;;;;5.75;3.10;;;;;;;24.37;60.58;100046.38;4974064;28;20058;-77